Current | Forecast
Updated: 7:00 AM JST on August 21, 2017
Observed at Yamaguchi Ube, Japan
Temperature 81°F
Humidity 94%
Dew Point 79°F
Wind ESE at 13 mph
Pressure 29.86 in (Rising)
Conditions Scattered Clouds
Visibility 5.6 miles
UV 1 out of 16
Clouds (FEW) : 700 ft
Scattered Clouds (SCT) : 2000 ft
Yesterday's Maximum 86°F
Yesterday's Minimum 77°F approx.
Yesterday's Cooling Degree Days 17 approx.
Sunrise5:40 AM JST
Sunset6:55 PM JST
Moon Rise4:45 AM JST
Moon Set6:35 PM JST
Moon PhaseMoon Phase
Waning Crescent
Raw METARMETAR RJDC 202200Z 11011KT 9000 FEW007 SCT020 BKN/// 27/26 Q1011


Monday
. High: 68° F.
Tuesday
. High: 71° F.
Wednesday
. High: 68° F.
Thursday
. High: 71° F.
Friday
. High: 68° F.
Saturday
. High: 71° F.
Sunday
. High: 75° F.
Monday
. High: 77° F.

Units: English | Metric

Find the Weather for any City, State or Zipcode, or Country:

U.S. State List | Severe Weather | Tropical Storms | Ski Conditions
United States | Canada | Central America | South America | Asia | Europe | Australia | Africa | Islands

Weather Underground

© Copyright 2017
The Weather Company, LLC